Terminal Aerodrome Forecast
Issued by NWS

Home | Current Version | Previous Version | Text Only | Print | Product List | Glossary On
Versions: 1 2 3 4 5 6 7 8 9 10 11 12 13 14 15 16 17 18 19 20 21 22 23 24 25 26
000
FTUS41 KBUF 301500 AAB
TAFJHW
TAF AMD
KJHW 301504Z 3015/0112 24008KT P6SM BKN012
     FM301700 VRB03KT 6SM BR VCSH SCT035 BKN110
     FM302100 VRB03KT 6SM -SHRA VCSH SCT035 OVC070
     FM010000 VRB03KT P6SM VCSH SCT035 OVC050
     FM010500 00000KT 2SM BR BKN003 BKN060
      AMD LTD TO CLD VIS AND WIND=

USA.gov is the U.S. government's official web portal to all federal, state and local government web resources and services.